sensor_id;sensor_type;location;lat;lon;timestamp;temperature;humidity
16479;DHT22;8350;52.316;10.530;2023-08-06T00:01:59;15.90;99.90
16479;DHT22;8350;52.316;10.530;2023-08-06T00:04:26;15.90;99.90
16479;DHT22;8350;52.316;10.530;2023-08-06T00:06:53;15.90;99.90
16479;DHT22;8350;52.316;10.530;2023-08-06T00:09:21;15.80;99.90
16479;DHT22;8350;52.316;10.530;2023-08-06T00:11:48;15.90;99.90
16479;DHT22;8350;52.316;10.530;2023-08-06T00:14:15;15.90;99.90
16479;DHT22;8350;52.316;10.530;2023-08-06T00:16:43;15.90;99.90
16479;DHT22;8350;52.316;10.530;2023-08-06T00:19:11;15.90;99.90
16479;DHT22;8350;52.316;10.530;2023-08-06T00:21:38;15.80;99.90
16479;DHT22;8350;52.316;10.530;2023-08-06T00:24:05;15.80;99.90
16479;DHT22;8350;52.316;10.530;2023-08-06T00:26:33;15.80;99.90
16479;DHT22;8350;52.316;10.530;2023-08-06T00:29:00;15.70;99.90
16479;DHT22;8350;52.316;10.530;2023-08-06T00:31:27;15.70;99.90
16479;DHT22;8350;52.316;10.530;2023-08-06T00:33:54;15.60;99.90
16479;DHT22;8350;52.316;10.530;2023-08-06T00:36:22;15.60;99.90
16479;DHT22;8350;52.316;10.530;2023-08-06T00:38:49;15.60;99.90
16479;DHT22;8350;52.316;10.530;2023-08-06T00:41:16;15.50;99.90
16479;DHT22;8350;52.316;10.530;2023-08-06T00:43:44;15.60;99.90
16479;DHT22;8350;52.316;10.530;2023-08-06T00:46:40;15.60;99.90
16479;DHT22;8350;52.316;10.530;2023-08-06T00:49:21;15.60;99.90
16479;DHT22;8350;52.316;10.530;2023-08-06T00:51:48;15.70;99.90
16479;DHT22;8350;52.316;10.530;2023-08-06T00:54:16;15.70;99.90
16479;DHT22;8350;52.316;10.530;2023-08-06T00:59:31;15.60;99.90
16479;DHT22;8350;52.316;10.530;2023-08-06T01:02:01;15.70;99.90
16479;DHT22;8350;52.316;10.530;2023-08-06T01:04:31;15.60;99.90
16479;DHT22;8350;52.316;10.530;2023-08-06T01:07:05;15.60;99.90
16479;DHT22;8350;52.316;10.530;2023-08-06T01:09:43;15.70;99.90
16479;DHT22;8350;52.316;10.530;2023-08-06T01:12:21;15.70;99.90
16479;DHT22;8350;52.316;10.530;2023-08-06T01:15:00;15.60;99.90
16479;DHT22;8350;52.316;10.530;2023-08-06T01:17:40;15.50;99.90
16479;DHT22;8350;52.316;10.530;2023-08-06T01:20:08;15.60;99.90
16479;DHT22;8350;52.316;10.530;2023-08-06T01:22:37;15.60;99.90
16479;DHT22;8350;52.316;10.530;2023-08-06T01:25:04;15.50;99.90
16479;DHT22;8350;52.316;10.530;2023-08-06T01:27:37;15.60;99.90
16479;DHT22;8350;52.316;10.530;2023-08-06T01:30:11;15.60;99.90
16479;DHT22;8350;52.316;10.530;2023-08-06T01:32:43;15.60;99.90
16479;DHT22;8350;52.316;10.530;2023-08-06T01:35:12;15.50;99.90
16479;DHT22;8350;52.316;10.530;2023-08-06T01:37:42;15.40;99.90
16479;DHT22;8350;52.316;10.530;2023-08-06T01:40:10;15.40;99.90
16479;DHT22;8350;52.316;10.530;2023-08-06T01:42:37;15.40;99.90
16479;DHT22;8350;52.316;10.530;2023-08-06T01:45:07;15.50;99.90
16479;DHT22;8350;52.316;10.530;2023-08-06T01:47:37;15.60;99.90
16479;DHT22;8350;52.316;10.530;2023-08-06T01:50:05;15.60;99.90
16479;DHT22;8350;52.316;10.530;2023-08-06T01:52:34;15.60;99.90
16479;DHT22;8350;52.316;10.530;2023-08-06T01:55:03;15.60;99.90
16479;DHT22;8350;52.316;10.530;2023-08-06T01:57:30;15.60;99.90
16479;DHT22;8350;52.316;10.530;2023-08-06T01:59:57;15.50;99.90
16479;DHT22;8350;52.316;10.530;2023-08-06T02:02:24;15.50;99.90
16479;DHT22;8350;52.316;10.530;2023-08-06T02:04:51;15.50;99.90
16479;DHT22;8350;52.316;10.530;2023-08-06T02:07:18;15.50;99.90
16479;DHT22;8350;52.316;10.530;2023-08-06T02:09:45;15.60;99.90
16479;DHT22;8350;52.316;10.530;2023-08-06T02:12:13;15.50;99.90
16479;DHT22;8350;52.316;10.530;2023-08-06T02:14:40;15.60;99.90
16479;DHT22;8350;52.316;10.530;2023-08-06T02:17:07;15.50;99.90
16479;DHT22;8350;52.316;10.530;2023-08-06T02:19:34;15.50;99.90
16479;DHT22;8350;52.316;10.530;2023-08-06T02:22:01;15.50;99.90
16479;DHT22;8350;52.316;10.530;2023-08-06T02:24:28;15.50;99.90
16479;DHT22;8350;52.316;10.530;2023-08-06T02:26:55;15.40;99.90
16479;DHT22;8350;52.316;10.530;2023-08-06T02:29:23;15.50;99.90
16479;DHT22;8350;52.316;10.530;2023-08-06T02:31:50;15.40;99.90
16479;DHT22;8350;52.316;10.530;2023-08-06T02:34:17;15.40;99.90
16479;DHT22;8350;52.316;10.530;2023-08-06T02:36:44;15.40;99.90
16479;DHT22;8350;52.316;10.530;2023-08-06T02:39:11;15.30;99.90
16479;DHT22;8350;52.316;10.530;2023-08-06T02:41:38;15.30;99.90
16479;DHT22;8350;52.316;10.530;2023-08-06T02:44:05;15.40;99.90
16479;DHT22;8350;52.316;10.530;2023-08-06T02:46:33;15.40;99.90
16479;DHT22;8350;52.316;10.530;2023-08-06T02:49:00;15.40;99.90
16479;DHT22;8350;52.316;10.530;2023-08-06T02:51:27;15.40;99.90
16479;DHT22;8350;52.316;10.530;2023-08-06T02:53:54;15.40;99.90
16479;DHT22;8350;52.316;10.530;2023-08-06T02:56:21;15.30;99.90
16479;DHT22;8350;52.316;10.530;2023-08-06T02:58:48;15.30;99.90
16479;DHT22;8350;52.316;10.530;2023-08-06T03:01:15;15.20;99.90
16479;DHT22;8350;52.316;10.530;2023-08-06T03:03:43;15.30;99.90
16479;DHT22;8350;52.316;10.530;2023-08-06T03:06:10;15.30;99.90
16479;DHT22;8350;52.316;10.530;2023-08-06T03:08:37;15.30;99.90
16479;DHT22;8350;52.316;10.530;2023-08-06T03:11:04;15.30;99.90
16479;DHT22;8350;52.316;10.530;2023-08-06T03:13:31;15.30;99.90
16479;DHT22;8350;52.316;10.530;2023-08-06T03:15:59;15.30;99.90
16479;DHT22;8350;52.316;10.530;2023-08-06T03:18:27;15.30;99.90
16479;DHT22;8350;52.316;10.530;2023-08-06T03:20:55;15.30;99.90
16479;DHT22;8350;52.316;10.530;2023-08-06T03:23:22;15.40;99.90
16479;DHT22;8350;52.316;10.530;2023-08-06T03:25:49;15.40;99.90
16479;DHT22;8350;52.316;10.530;2023-08-06T03:28:16;15.30;99.90
16479;DHT22;8350;52.316;10.530;2023-08-06T03:30:46;15.20;99.90
16479;DHT22;8350;52.316;10.530;2023-08-06T03:33:13;15.20;99.90
16479;DHT22;8350;52.316;10.530;2023-08-06T03:35:40;15.20;99.90
16479;DHT22;8350;52.316;10.530;2023-08-06T03:38:09;15.20;99.90
16479;DHT22;8350;52.316;10.530;2023-08-06T03:40:36;15.20;99.90
16479;DHT22;8350;52.316;10.530;2023-08-06T03:43:03;15.20;99.90
16479;DHT22;8350;52.316;10.530;2023-08-06T03:45:30;15.20;99.90
16479;DHT22;8350;52.316;10.530;2023-08-06T03:47:57;15.20;99.90
16479;DHT22;8350;52.316;10.530;2023-08-06T03:50:24;15.20;99.90
16479;DHT22;8350;52.316;10.530;2023-08-06T03:52:51;15.20;99.90
16479;DHT22;8350;52.316;10.530;2023-08-06T03:55:19;15.20;99.90
16479;DHT22;8350;52.316;10.530;2023-08-06T03:57:46;15.30;99.90
16479;DHT22;8350;52.316;10.530;2023-08-06T04:00:23;15.20;99.90
16479;DHT22;8350;52.316;10.530;2023-08-06T04:02:50;15.20;99.90
16479;DHT22;8350;52.316;10.530;2023-08-06T04:05:18;15.20;99.90
16479;DHT22;8350;52.316;10.530;2023-08-06T04:07:45;15.10;99.90
16479;DHT22;8350;52.316;10.530;2023-08-06T04:10:12;15.00;99.90
16479;DHT22;8350;52.316;10.530;2023-08-06T04:12:40;15.00;99.90
16479;DHT22;8350;52.316;10.530;2023-08-06T04:15:08;15.10;99.90
16479;DHT22;8350;52.316;10.530;2023-08-06T04:17:37;15.10;99.90
16479;DHT22;8350;52.316;10.530;2023-08-06T04:20:05;15.10;99.90
16479;DHT22;8350;52.316;10.530;2023-08-06T04:22:35;15.10;99.90
16479;DHT22;8350;52.316;10.530;2023-08-06T04:25:02;15.10;99.90
16479;DHT22;8350;52.316;10.530;2023-08-06T04:27:29;15.10;99.90
16479;DHT22;8350;52.316;10.530;2023-08-06T04:30:00;15.10;99.90
16479;DHT22;8350;52.316;10.530;2023-08-06T04:32:27;15.20;99.90
16479;DHT22;8350;52.316;10.530;2023-08-06T04:34:55;15.10;99.90
16479;DHT22;8350;52.316;10.530;2023-08-06T04:37:22;15.10;99.90
16479;DHT22;8350;52.316;10.530;2023-08-06T04:39:57;15.20;99.90
16479;DHT22;8350;52.316;10.530;2023-08-06T04:42:24;15.20;99.90
16479;DHT22;8350;52.316;10.530;2023-08-06T04:44:51;15.20;99.90
16479;DHT22;8350;52.316;10.530;2023-08-06T04:47:20;15.30;99.90
16479;DHT22;8350;52.316;10.530;2023-08-06T04:49:47;15.30;99.90
16479;DHT22;8350;52.316;10.530;2023-08-06T04:52:17;15.40;99.90
16479;DHT22;8350;52.316;10.530;2023-08-06T04:54:44;15.40;99.90
16479;DHT22;8350;52.316;10.530;2023-08-06T04:57:14;15.50;99.90
16479;DHT22;8350;52.316;10.530;2023-08-06T04:59:41;15.50;99.90
16479;DHT22;8350;52.316;10.530;2023-08-06T05:02:08;15.50;99.90
16479;DHT22;8350;52.316;10.530;2023-08-06T05:04:36;15.40;99.90
16479;DHT22;8350;52.316;10.530;2023-08-06T05:07:05;15.50;99.90
16479;DHT22;8350;52.316;10.530;2023-08-06T05:09:32;15.50;99.90
16479;DHT22;8350;52.316;10.530;2023-08-06T05:12:01;15.50;99.90
16479;DHT22;8350;52.316;10.530;2023-08-06T05:14:28;15.50;99.90
16479;DHT22;8350;52.316;10.530;2023-08-06T05:16:55;15.60;99.90
16479;DHT22;8350;52.316;10.530;2023-08-06T05:19:25;15.60;99.90
16479;DHT22;8350;52.316;10.530;2023-08-06T05:21:53;15.60;99.90
16479;DHT22;8350;52.316;10.530;2023-08-06T05:24:20;15.50;99.90
16479;DHT22;8350;52.316;10.530;2023-08-06T05:26:47;15.50;99.90
16479;DHT22;8350;52.316;10.530;2023-08-06T05:29:15;15.50;99.90
16479;DHT22;8350;52.316;10.530;2023-08-06T05:31:46;15.50;99.90
16479;DHT22;8350;52.316;10.530;2023-08-06T05:34:15;15.50;99.90
16479;DHT22;8350;52.316;10.530;2023-08-06T05:36:42;15.50;99.90
16479;DHT22;8350;52.316;10.530;2023-08-06T05:39:11;15.60;99.90
16479;DHT22;8350;52.316;10.530;2023-08-06T05:41:38;15.60;99.90
16479;DHT22;8350;52.316;10.530;2023-08-06T05:44:04;15.60;99.90
16479;DHT22;8350;52.316;10.530;2023-08-06T05:46:31;15.70;99.90
16479;DHT22;8350;52.316;10.530;2023-08-06T05:48:58;15.70;99.90
16479;DHT22;8350;52.316;10.530;2023-08-06T05:51:26;15.80;99.90
16479;DHT22;8350;52.316;10.530;2023-08-06T05:53:54;15.90;99.90
16479;DHT22;8350;52.316;10.530;2023-08-06T05:56:22;16.00;99.90
16479;DHT22;8350;52.316;10.530;2023-08-06T05:58:49;16.20;99.90
16479;DHT22;8350;52.316;10.530;2023-08-06T06:01:24;16.30;99.90
16479;DHT22;8350;52.316;10.530;2023-08-06T06:03:52;16.40;99.90
16479;DHT22;8350;52.316;10.530;2023-08-06T06:06:19;16.60;99.90
16479;DHT22;8350;52.316;10.530;2023-08-06T06:08:46;16.60;99.90
16479;DHT22;8350;52.316;10.530;2023-08-06T06:11:13;16.80;99.90
16479;DHT22;8350;52.316;10.530;2023-08-06T06:13:42;16.80;99.90
16479;DHT22;8350;52.316;10.530;2023-08-06T06:16:09;16.90;99.90
16479;DHT22;8350;52.316;10.530;2023-08-06T06:18:40;16.90;99.90
16479;DHT22;8350;52.316;10.530;2023-08-06T06:21:07;17.00;99.90
16479;DHT22;8350;52.316;10.530;2023-08-06T06:23:34;17.10;99.90
16479;DHT22;8350;52.316;10.530;2023-08-06T06:26:08;17.10;99.90
16479;DHT22;8350;52.316;10.530;2023-08-06T06:28:37;17.10;99.90
16479;DHT22;8350;52.316;10.530;2023-08-06T06:31:06;17.20;99.90
16479;DHT22;8350;52.316;10.530;2023-08-06T06:33:37;17.30;99.90
16479;DHT22;8350;52.316;10.530;2023-08-06T06:36:05;17.40;99.90
16479;DHT22;8350;52.316;10.530;2023-08-06T06:38:33;17.40;99.90
16479;DHT22;8350;52.316;10.530;2023-08-06T06:41:00;17.50;99.90
16479;DHT22;8350;52.316;10.530;2023-08-06T06:43:28;17.50;99.90
16479;DHT22;8350;52.316;10.530;2023-08-06T06:45:57;17.60;99.90
16479;DHT22;8350;52.316;10.530;2023-08-06T06:48:27;17.60;99.90
16479;DHT22;8350;52.316;10.530;2023-08-06T06:50:54;17.60;99.90
16479;DHT22;8350;52.316;10.530;2023-08-06T06:53:21;17.70;99.90
16479;DHT22;8350;52.316;10.530;2023-08-06T06:55:52;17.90;99.90
16479;DHT22;8350;52.316;10.530;2023-08-06T06:58:19;18.00;99.90
16479;DHT22;8350;52.316;10.530;2023-08-06T07:00:47;18.20;99.90
16479;DHT22;8350;52.316;10.530;2023-08-06T07:03:14;18.30;99.90
16479;DHT22;8350;52.316;10.530;2023-08-06T07:05:44;18.50;99.90
16479;DHT22;8350;52.316;10.530;2023-08-06T07:08:11;18.60;99.90
16479;DHT22;8350;52.316;10.530;2023-08-06T07:10:41;18.80;99.90
16479;DHT22;8350;52.316;10.530;2023-08-06T07:13:09;18.90;99.90
16479;DHT22;8350;52.316;10.530;2023-08-06T07:15:36;19.10;99.90
16479;DHT22;8350;52.316;10.530;2023-08-06T07:18:03;19.30;99.90
16479;DHT22;8350;52.316;10.530;2023-08-06T07:20:30;19.60;99.90
16479;DHT22;8350;52.316;10.530;2023-08-06T07:23:01;19.60;99.90
16479;DHT22;8350;52.316;10.530;2023-08-06T07:25:28;19.70;99.90
16479;DHT22;8350;52.316;10.530;2023-08-06T07:27:55;20.00;99.90
16479;DHT22;8350;52.316;10.530;2023-08-06T07:30:23;19.90;1.00
16479;DHT22;8350;52.316;10.530;2023-08-06T07:32:50;20.00;1.00
16479;DHT22;8350;52.316;10.530;2023-08-06T07:35:17;20.30;1.00
16479;DHT22;8350;52.316;10.530;2023-08-06T07:37:44;20.50;1.00
16479;DHT22;8350;52.316;10.530;2023-08-06T07:40:13;20.50;1.00
16479;DHT22;8350;52.316;10.530;2023-08-06T07:42:40;20.80;99.90
16479;DHT22;8350;52.316;10.530;2023-08-06T07:45:08;21.00;99.90
16479;DHT22;8350;52.316;10.530;2023-08-06T07:47:38;21.00;99.90
16479;DHT22;8350;52.316;10.530;2023-08-06T07:50:18;21.20;99.90
16479;DHT22;8350;52.316;10.530;2023-08-06T07:52:45;21.30;99.90
16479;DHT22;8350;52.316;10.530;2023-08-06T07:55:16;21.30;99.90
16479;DHT22;8350;52.316;10.530;2023-08-06T07:57:43;21.50;99.90
16479;DHT22;8350;52.316;10.530;2023-08-06T08:00:11;21.50;99.90
16479;DHT22;8350;52.316;10.530;2023-08-06T08:02:38;21.60;99.90
16479;DHT22;8350;52.316;10.530;2023-08-06T08:05:05;21.60;99.90
16479;DHT22;8350;52.316;10.530;2023-08-06T08:07:33;21.90;99.90
16479;DHT22;8350;52.316;10.530;2023-08-06T08:10:00;21.90;99.90
16479;DHT22;8350;52.316;10.530;2023-08-06T08:12:30;21.60;99.90
16479;DHT22;8350;52.316;10.530;2023-08-06T08:17:54;22.30;99.90
16479;DHT22;8350;52.316;10.530;2023-08-06T08:20:22;22.20;99.90
16479;DHT22;8350;52.316;10.530;2023-08-06T08:22:58;22.00;99.90
16479;DHT22;8350;52.316;10.530;2023-08-06T08:25:26;22.10;99.90
16479;DHT22;8350;52.316;10.530;2023-08-06T08:27:55;22.00;99.90
16479;DHT22;8350;52.316;10.530;2023-08-06T08:30:22;21.90;99.90
16479;DHT22;8350;52.316;10.530;2023-08-06T08:32:50;21.90;99.90
16479;DHT22;8350;52.316;10.530;2023-08-06T08:35:17;21.80;99.90
16479;DHT22;8350;52.316;10.530;2023-08-06T08:37:44;22.00;99.90
16479;DHT22;8350;52.316;10.530;2023-08-06T08:40:14;22.00;99.90
16479;DHT22;8350;52.316;10.530;2023-08-06T08:42:42;21.80;99.90
16479;DHT22;8350;52.316;10.530;2023-08-06T08:45:12;21.70;99.90
16479;DHT22;8350;52.316;10.530;2023-08-06T08:47:43;22.00;99.90
16479;DHT22;8350;52.316;10.530;2023-08-06T08:50:11;22.40;99.90
16479;DHT22;8350;52.316;10.530;2023-08-06T08:52:40;22.30;99.90
16479;DHT22;8350;52.316;10.530;2023-08-06T08:55:08;22.40;99.90
16479;DHT22;8350;52.316;10.530;2023-08-06T08:57:35;22.10;99.90
16479;DHT22;8350;52.316;10.530;2023-08-06T09:00:03;22.30;99.90
16479;DHT22;8350;52.316;10.530;2023-08-06T09:02:33;22.60;99.90
16479;DHT22;8350;52.316;10.530;2023-08-06T09:05:01;22.30;99.90
16479;DHT22;8350;52.316;10.530;2023-08-06T09:07:32;22.50;99.90
16479;DHT22;8350;52.316;10.530;2023-08-06T09:10:05;22.40;99.90
16479;DHT22;8350;52.316;10.530;2023-08-06T09:12:34;22.00;99.90
16479;DHT22;8350;52.316;10.530;2023-08-06T09:15:01;22.20;99.90
16479;DHT22;8350;52.316;10.530;2023-08-06T09:17:29;22.50;99.90
16479;DHT22;8350;52.316;10.530;2023-08-06T09:19:57;22.70;99.90
16479;DHT22;8350;52.316;10.530;2023-08-06T09:22:24;22.40;99.90
16479;DHT22;8350;52.316;10.530;2023-08-06T09:24:51;22.50;99.90
16479;DHT22;8350;52.316;10.530;2023-08-06T09:27:18;22.20;99.90
16479;DHT22;8350;52.316;10.530;2023-08-06T09:29:45;22.50;99.90
16479;DHT22;8350;52.316;10.530;2023-08-06T09:32:13;23.00;99.90
16479;DHT22;8350;52.316;10.530;2023-08-06T09:34:41;23.30;99.90
16479;DHT22;8350;52.316;10.530;2023-08-06T09:37:10;22.90;99.90
16479;DHT22;8350;52.316;10.530;2023-08-06T09:39:39;22.60;99.90
16479;DHT22;8350;52.316;10.530;2023-08-06T09:42:06;22.20;99.90
16479;DHT22;8350;52.316;10.530;2023-08-06T09:44:35;22.00;99.90
16479;DHT22;8350;52.316;10.530;2023-08-06T09:47:04;22.00;99.90
16479;DHT22;8350;52.316;10.530;2023-08-06T09:49:41;22.00;99.90
16479;DHT22;8350;52.316;10.530;2023-08-06T09:52:12;22.00;99.90
16479;DHT22;8350;52.316;10.530;2023-08-06T09:54:43;21.80;99.90
16479;DHT22;8350;52.316;10.530;2023-08-06T09:57:12;21.90;99.90
16479;DHT22;8350;52.316;10.530;2023-08-06T09:59:39;22.10;99.90
16479;DHT22;8350;52.316;10.530;2023-08-06T10:02:12;22.50;99.90
16479;DHT22;8350;52.316;10.530;2023-08-06T10:04:43;22.80;99.90
16479;DHT22;8350;52.316;10.530;2023-08-06T10:07:12;23.10;99.90
16479;DHT22;8350;52.316;10.530;2023-08-06T10:09:39;23.40;99.90
16479;DHT22;8350;52.316;10.530;2023-08-06T10:12:09;23.60;99.90
16479;DHT22;8350;52.316;10.530;2023-08-06T10:14:38;24.00;99.90
16479;DHT22;8350;52.316;10.530;2023-08-06T10:17:07;24.00;99.90
16479;DHT22;8350;52.316;10.530;2023-08-06T10:19:35;23.60;99.90
16479;DHT22;8350;52.316;10.530;2023-08-06T10:22:17;23.20;99.90
16479;DHT22;8350;52.316;10.530;2023-08-06T10:28:19;23.60;99.90
16479;DHT22;8350;52.316;10.530;2023-08-06T10:30:48;23.80;99.90
16479;DHT22;8350;52.316;10.530;2023-08-06T10:33:19;24.00;99.90
16479;DHT22;8350;52.316;10.530;2023-08-06T10:35:47;24.10;99.90
16479;DHT22;8350;52.316;10.530;2023-08-06T10:38:17;24.30;99.90
16479;DHT22;8350;52.316;10.530;2023-08-06T10:40:49;24.60;99.90
16479;DHT22;8350;52.316;10.530;2023-08-06T10:43:25;25.00;99.90
16479;DHT22;8350;52.316;10.530;2023-08-06T10:45:52;24.50;99.90
16479;DHT22;8350;52.316;10.530;2023-08-06T10:48:29;24.50;99.90
16479;DHT22;8350;52.316;10.530;2023-08-06T10:50:56;24.50;99.90
16479;DHT22;8350;52.316;10.530;2023-08-06T10:53:25;24.60;99.90
16479;DHT22;8350;52.316;10.530;2023-08-06T10:55:52;24.30;99.90
16479;DHT22;8350;52.316;10.530;2023-08-06T10:58:19;23.80;99.90
16479;DHT22;8350;52.316;10.530;2023-08-06T11:00:47;23.30;99.90
16479;DHT22;8350;52.316;10.530;2023-08-06T11:03:17;22.80;99.90
16479;DHT22;8350;52.316;10.530;2023-08-06T11:05:48;22.40;99.90
16479;DHT22;8350;52.316;10.530;2023-08-06T11:08:25;22.40;99.90
16479;DHT22;8350;52.316;10.530;2023-08-06T11:10:53;22.60;99.90
16479;DHT22;8350;52.316;10.530;2023-08-06T11:13:21;23.10;99.90
16479;DHT22;8350;52.316;10.530;2023-08-06T11:15:48;23.20;99.90
16479;DHT22;8350;52.316;10.530;2023-08-06T11:18:15;22.90;99.90
16479;DHT22;8350;52.316;10.530;2023-08-06T11:20:42;22.80;99.90
16479;DHT22;8350;52.316;10.530;2023-08-06T11:23:10;22.60;99.90
16479;DHT22;8350;52.316;10.530;2023-08-06T11:25:44;22.40;99.90
16479;DHT22;8350;52.316;10.530;2023-08-06T11:28:14;22.30;99.90
16479;DHT22;8350;52.316;10.530;2023-08-06T11:30:42;22.20;99.90
16479;DHT22;8350;52.316;10.530;2023-08-06T11:33:09;22.60;99.90
16479;DHT22;8350;52.316;10.530;2023-08-06T11:35:36;23.00;99.90
16479;DHT22;8350;52.316;10.530;2023-08-06T11:38:04;23.10;99.90
16479;DHT22;8350;52.316;10.530;2023-08-06T11:40:31;23.40;99.90
16479;DHT22;8350;52.316;10.530;2023-08-06T11:43:00;23.60;99.90
16479;DHT22;8350;52.316;10.530;2023-08-06T11:45:27;23.70;99.90
16479;DHT22;8350;52.316;10.530;2023-08-06T11:47:54;23.60;99.90
16479;DHT22;8350;52.316;10.530;2023-08-06T11:50:22;23.20;99.90
16479;DHT22;8350;52.316;10.530;2023-08-06T11:52:53;23.00;99.90
16479;DHT22;8350;52.316;10.530;2023-08-06T11:55:23;22.80;99.90
16479;DHT22;8350;52.316;10.530;2023-08-06T11:57:51;23.10;99.90
16479;DHT22;8350;52.316;10.530;2023-08-06T12:00:19;23.40;99.90
16479;DHT22;8350;52.316;10.530;2023-08-06T12:02:48;23.60;99.90
16479;DHT22;8350;52.316;10.530;2023-08-06T12:05:19;23.90;99.90
16479;DHT22;8350;52.316;10.530;2023-08-06T12:07:50;24.30;99.90
16479;DHT22;8350;52.316;10.530;2023-08-06T12:10:18;24.40;99.90
16479;DHT22;8350;52.316;10.530;2023-08-06T12:12:46;24.50;99.90
16479;DHT22;8350;52.316;10.530;2023-08-06T12:15:13;24.30;99.90
16479;DHT22;8350;52.316;10.530;2023-08-06T12:17:42;24.30;99.90
16479;DHT22;8350;52.316;10.530;2023-08-06T12:20:10;24.10;99.90
16479;DHT22;8350;52.316;10.530;2023-08-06T12:22:38;23.80;99.90
16479;DHT22;8350;52.316;10.530;2023-08-06T12:25:07;23.40;99.90
16479;DHT22;8350;52.316;10.530;2023-08-06T12:27:37;23.40;99.90
16479;DHT22;8350;52.316;10.530;2023-08-06T12:30:06;23.80;99.90
16479;DHT22;8350;52.316;10.530;2023-08-06T12:32:33;24.20;99.90
16479;DHT22;8350;52.316;10.530;2023-08-06T12:35:02;24.60;99.90
16479;DHT22;8350;52.316;10.530;2023-08-06T12:37:30;24.80;99.90
16479;DHT22;8350;52.316;10.530;2023-08-06T12:39:57;24.80;99.90
16479;DHT22;8350;52.316;10.530;2023-08-06T12:42:24;25.00;99.90
16479;DHT22;8350;52.316;10.530;2023-08-06T12:44:51;24.50;99.90
16479;DHT22;8350;52.316;10.530;2023-08-06T12:47:24;24.20;99.90
16479;DHT22;8350;52.316;10.530;2023-08-06T12:49:51;23.70;99.90
16479;DHT22;8350;52.316;10.530;2023-08-06T12:52:19;23.20;99.90
16479;DHT22;8350;52.316;10.530;2023-08-06T12:54:46;23.10;99.90
16479;DHT22;8350;52.316;10.530;2023-08-06T12:57:13;23.50;99.90
16479;DHT22;8350;52.316;10.530;2023-08-06T12:59:40;23.90;99.90
16479;DHT22;8350;52.316;10.530;2023-08-06T13:02:07;24.20;99.90
16479;DHT22;8350;52.316;10.530;2023-08-06T13:04:34;23.90;99.90
16479;DHT22;8350;52.316;10.530;2023-08-06T13:07:01;23.90;99.90
16479;DHT22;8350;52.316;10.530;2023-08-06T13:09:35;24.10;99.90
16479;DHT22;8350;52.316;10.530;2023-08-06T13:12:02;24.10;99.90
16479;DHT22;8350;52.316;10.530;2023-08-06T13:14:31;23.80;99.90
16479;DHT22;8350;52.316;10.530;2023-08-06T13:16:58;23.90;99.90
16479;DHT22;8350;52.316;10.530;2023-08-06T13:19:25;24.30;99.90
16479;DHT22;8350;52.316;10.530;2023-08-06T13:21:59;24.70;99.90
16479;DHT22;8350;52.316;10.530;2023-08-06T13:24:27;25.00;99.90
16479;DHT22;8350;52.316;10.530;2023-08-06T13:26:56;24.80;99.90
16479;DHT22;8350;52.316;10.530;2023-08-06T13:29:23;24.50;99.90
16479;DHT22;8350;52.316;10.530;2023-08-06T13:31:50;24.60;99.90
16479;DHT22;8350;52.316;10.530;2023-08-06T13:34:17;24.70;99.90
16479;DHT22;8350;52.316;10.530;2023-08-06T13:36:44;25.00;99.90
16479;DHT22;8350;52.316;10.530;2023-08-06T13:39:10;24.80;99.90
16479;DHT22;8350;52.316;10.530;2023-08-06T13:41:37;24.10;99.90
16479;DHT22;8350;52.316;10.530;2023-08-06T13:44:07;23.60;99.90
16479;DHT22;8350;52.316;10.530;2023-08-06T13:46:37;23.20;99.90
16479;DHT22;8350;52.316;10.530;2023-08-06T13:49:04;23.50;99.90
16479;DHT22;8350;52.316;10.530;2023-08-06T13:51:31;23.70;99.90
16479;DHT22;8350;52.316;10.530;2023-08-06T13:53:59;23.70;99.90
16479;DHT22;8350;52.316;10.530;2023-08-06T13:56:26;23.80;99.90
16479;DHT22;8350;52.316;10.530;2023-08-06T13:58:55;23.90;99.90
16479;DHT22;8350;52.316;10.530;2023-08-06T14:01:23;24.20;99.90
16479;DHT22;8350;52.316;10.530;2023-08-06T14:03:50;24.30;99.90
16479;DHT22;8350;52.316;10.530;2023-08-06T14:06:19;24.10;99.90
16479;DHT22;8350;52.316;10.530;2023-08-06T14:08:46;23.60;99.90
16479;DHT22;8350;52.316;10.530;2023-08-06T14:11:13;23.50;99.90
16479;DHT22;8350;52.316;10.530;2023-08-06T14:13:40;23.50;99.90
16479;DHT22;8350;52.316;10.530;2023-08-06T14:16:07;23.50;99.90
16479;DHT22;8350;52.316;10.530;2023-08-06T14:18:36;23.60;99.90
16479;DHT22;8350;52.316;10.530;2023-08-06T14:21:04;23.60;99.90
16479;DHT22;8350;52.316;10.530;2023-08-06T14:23:31;23.50;99.90
16479;DHT22;8350;52.316;10.530;2023-08-06T14:25:58;23.70;99.90
16479;DHT22;8350;52.316;10.530;2023-08-06T14:28:25;23.70;99.90
16479;DHT22;8350;52.316;10.530;2023-08-06T14:30:52;23.50;99.90
16479;DHT22;8350;52.316;10.530;2023-08-06T14:33:19;23.50;99.90
16479;DHT22;8350;52.316;10.530;2023-08-06T14:35:47;23.50;99.90
16479;DHT22;8350;52.316;10.530;2023-08-06T14:38:20;23.50;99.90
16479;DHT22;8350;52.316;10.530;2023-08-06T14:41:07;23.60;99.90
16479;DHT22;8350;52.316;10.530;2023-08-06T14:43:34;23.80;99.90
16479;DHT22;8350;52.316;10.530;2023-08-06T14:46:01;23.90;99.90
16479;DHT22;8350;52.316;10.530;2023-08-06T14:48:29;23.90;99.90
16479;DHT22;8350;52.316;10.530;2023-08-06T14:50:57;23.80;99.90
16479;DHT22;8350;52.316;10.530;2023-08-06T14:53:24;23.50;99.90
16479;DHT22;8350;52.316;10.530;2023-08-06T14:55:54;23.50;99.90
16479;DHT22;8350;52.316;10.530;2023-08-06T14:58:21;23.50;99.90
16479;DHT22;8350;52.316;10.530;2023-08-06T15:00:48;23.10;99.90
16479;DHT22;8350;52.316;10.530;2023-08-06T15:03:15;22.70;99.90
16479;DHT22;8350;52.316;10.530;2023-08-06T15:05:43;22.50;99.90
16479;DHT22;8350;52.316;10.530;2023-08-06T15:08:12;22.50;99.90
16479;DHT22;8350;52.316;10.530;2023-08-06T15:10:39;22.40;99.90
16479;DHT22;8350;52.316;10.530;2023-08-06T15:13:06;22.70;99.90
16479;DHT22;8350;52.316;10.530;2023-08-06T15:15:33;22.90;99.90
16479;DHT22;8350;52.316;10.530;2023-08-06T15:18:00;22.90;99.90
16479;DHT22;8350;52.316;10.530;2023-08-06T15:20:27;23.00;99.90
16479;DHT22;8350;52.316;10.530;2023-08-06T15:22:54;23.10;99.90
16479;DHT22;8350;52.316;10.530;2023-08-06T15:25:25;23.00;99.90
16479;DHT22;8350;52.316;10.530;2023-08-06T15:27:52;22.80;99.90
16479;DHT22;8350;52.316;10.530;2023-08-06T15:30:19;22.70;99.90
16479;DHT22;8350;52.316;10.530;2023-08-06T15:32:46;22.50;99.90
16479;DHT22;8350;52.316;10.530;2023-08-06T15:35:13;22.50;99.90
16479;DHT22;8350;52.316;10.530;2023-08-06T15:37:40;22.50;99.90
16479;DHT22;8350;52.316;10.530;2023-08-06T15:40:08;22.60;99.90
16479;DHT22;8350;52.316;10.530;2023-08-06T15:42:37;22.70;99.90
16479;DHT22;8350;52.316;10.530;2023-08-06T15:45:04;22.90;99.90
16479;DHT22;8350;52.316;10.530;2023-08-06T15:47:31;23.00;99.90